Time;durP1;ratioP1;P1;durP2;ratioP2;P2;SDS_P1;SDS_P2;PMS_P1;PMS_P2;Temp;Humidity;BMP_temperature;BMP_pressure;BME280_temperature;BME280_humidity;BME280_pressure;Samples;Min_cycle;Max_cycle;Signal;HPM_P1;HPM_P2
2021/08/16 00:00:05;;;;;;;16.50;3.22;;;;;;;18.54;71.13;101019.31;5069756;28;20438;-60
2021/08/16 00:02:32;;;;;;;16.52;3.63;;;;;;;18.53;70.84;101018.44;5083437;28;20055;-61
2021/08/16 00:04:57;;;;;;;19.00;3.45;;;;;;;18.51;70.85;101025.59;5084305;28;20024;-60
2021/08/16 00:07:23;;;;;;;17.55;3.58;;;;;;;18.51;70.59;101013.16;5084754;28;20036;-61
2021/08/16 00:09:49;;;;;;;21.83;4.05;;;;;;;18.42;71.13;101021.44;5086607;28;20102;-61
2021/08/16 00:12:14;;;;;;;14.43;3.30;;;;;;;18.48;71.10;101021.22;5082042;28;20032;-61
2021/08/16 00:14:39;;;;;;;14.68;3.33;;;;;;;18.47;71.40;101018.66;5084960;28;20530;-61
2021/08/16 00:17:06;;;;;;;17.30;3.13;;;;;;;18.44;71.29;101013.41;5085147;28;20088;-61
2021/08/16 00:19:31;;;;;;;12.45;3.17;;;;;;;18.50;71.19;101013.19;5083771;28;20029;-60
2021/08/16 00:21:57;;;;;;;14.50;3.13;;;;;;;18.52;70.82;101019.34;5081803;28;20017;-61
2021/08/16 00:24:22;;;;;;;21.65;2.97;;;;;;;18.47;70.93;101008.88;5078851;28;20476;-60
2021/08/16 00:26:48;;;;;;;17.73;3.80;;;;;;;18.52;71.00;101008.69;5067671;28;20097;-61
2021/08/16 00:29:13;;;;;;;14.95;3.45;;;;;;;18.46;71.49;100998.25;5079650;28;20023;-61
2021/08/16 00:31:39;;;;;;;14.85;3.25;;;;;;;18.41;71.23;100997.53;5084716;28;20032;-60
2021/08/16 00:34:04;;;;;;;17.25;3.85;;;;;;;18.41;71.36;101005.50;5081374;28;20393;-61
2021/08/16 00:36:30;;;;;;;15.48;3.05;;;;;;;18.41;71.57;101002.84;5078223;28;20055;-60
2021/08/16 00:38:55;;;;;;;10.10;2.50;;;;;;;18.41;71.51;101008.16;5085018;28;20032;-61
2021/08/16 00:41:21;;;;;;;12.27;3.38;;;;;;;18.43;71.29;100993.03;5080014;28;20058;-61
2021/08/16 00:43:47;;;;;;;14.25;2.83;;;;;;;18.38;71.75;100998.50;5080144;28;20078;-61
2021/08/16 00:46:13;;;;;;;15.38;3.20;;;;;;;18.41;71.40;101001.09;5082466;28;20040;-61
2021/08/16 00:48:41;;;;;;;14.30;2.78;;;;;;;18.41;71.30;101002.84;5083838;28;20032;-63
2021/08/16 00:51:07;;;;;;;15.18;2.90;;;;;;;18.42;71.32;101002.81;5095074;28;20110;-61
2021/08/16 00:53:32;;;;;;;16.98;3.25;;;;;;;18.35;71.84;101005.72;5073567;28;20037;-64
2021/08/16 00:55:58;;;;;;;16.08;3.42;;;;;;;18.37;71.65;101001.22;5088415;28;20185;-61
2021/08/16 00:58:25;;;;;;;12.02;3.25;;;;;;;18.38;71.64;101000.31;5107632;28;20026;-61
2021/08/16 01:00:55;;;;;;;16.40;3.30;;;;;;;18.40;71.60;100996.66;5101171;28;20217;-61
2021/08/16 01:03:20;;;;;;;16.08;3.83;;;;;;;18.38;71.35;100995.84;5103098;28;20231;-61
2021/08/16 01:05:45;;;;;;;15.45;2.85;;;;;;;18.43;71.76;101001.91;5104597;28;20039;-61
2021/08/16 01:08:11;;;;;;;14.88;3.40;;;;;;;18.44;71.68;100994.78;5112797;28;20036;-61
2021/08/16 01:10:36;;;;;;;13.48;2.53;;;;;;;18.48;71.62;101007.06;5107334;28;20051;-61
2021/08/16 01:13:02;;;;;;;14.73;2.95;;;;;;;18.54;71.17;101000.69;5095195;28;20044;-61
2021/08/16 01:15:33;;;;;;;15.13;2.75;;;;;;;18.53;71.57;100993.63;5103207;28;20035;-61
2021/08/16 01:17:59;;;;;;;11.20;2.78;;;;;;;18.51;71.51;100999.84;5109345;28;20037;-62
2021/08/16 01:20:24;;;;;;;18.05;3.38;;;;;;;18.53;71.42;100994.50;5100861;28;20040;-61
2021/08/16 01:22:50;;;;;;;11.68;3.15;;;;;;;18.52;71.43;100995.41;5099751;28;20033;-61
2021/08/16 01:25:15;;;;;;;12.93;3.30;;;;;;;18.48;71.60;100994.63;5098513;28;20043;-61
2021/08/16 01:27:41;;;;;;;13.05;2.85;;;;;;;18.41;72.27;100998.41;5102623;28;20021;-62
2021/08/16 01:30:09;;;;;;;9.95;2.80;;;;;;;18.43;71.85;100993.91;5106509;28;20024;-61
2021/08/16 01:32:35;;;;;;;14.63;2.67;;;;;;;18.48;71.60;100996.41;5096265;28;20020;-61
2021/08/16 01:35:00;;;;;;;15.55;2.85;;;;;;;18.52;71.58;100990.06;5106452;28;20041;-61
2021/08/16 01:37:26;;;;;;;15.05;2.95;;;;;;;18.58;70.99;100997.88;5118953;28;20487;-61
2021/08/16 01:39:51;;;;;;;11.80;3.20;;;;;;;18.54;71.08;100979.38;5100928;28;20099;-62
2021/08/16 01:42:16;;;;;;;13.63;2.75;;;;;;;18.55;70.81;100984.66;5112698;28;20031;-60
2021/08/16 01:44:42;;;;;;;12.38;2.95;;;;;;;18.54;70.96;100980.25;5096988;28;20020;-61
2021/08/16 01:47:07;;;;;;;15.82;2.83;;;;;;;18.55;70.89;100987.31;5084229;28;20028;-60
2021/08/16 01:49:33;;;;;;;13.75;3.40;;;;;;;18.47;71.33;100984.91;5093367;28;20056;-62
2021/08/16 01:51:58;;;;;;;10.40;2.75;;;;;;;18.51;70.79;100975.91;5107364;28;20032;-61
2021/08/16 01:54:24;;;;;;;11.68;2.80;;;;;;;18.46;70.94;100987.63;5104356;28;20032;-61
2021/08/16 01:56:49;;;;;;;10.98;2.58;;;;;;;18.49;71.24;100990.19;5107847;28;20063;-61
2021/08/16 01:59:14;;;;;;;13.30;2.92;;;;;;;18.48;71.19;100991.97;5094048;28;20119;-61
2021/08/16 02:01:40;;;;;;;12.23;2.83;;;;;;;18.48;71.04;100986.63;5094012;28;20036;-61
2021/08/16 02:04:05;;;;;;;12.27;3.00;;;;;;;18.48;71.34;100986.63;5094069;28;20027;-61
2021/08/16 02:06:31;;;;;;;13.38;2.88;;;;;;;18.45;71.63;100985.88;5101554;28;20028;-61
2021/08/16 02:08:56;;;;;;;11.55;3.08;;;;;;;18.50;71.54;100990.13;5107349;28;20020;-61
2021/08/16 02:11:24;;;;;;;13.55;3.53;;;;;;;18.48;71.45;100991.97;5098305;28;20392;-60
2021/08/16 02:13:49;;;;;;;11.45;2.22;;;;;;;18.50;71.51;100990.13;5093511;28;20368;-63
2021/08/16 02:16:15;;;;;;;11.85;3.08;;;;;;;18.57;71.11;100987.28;5107628;28;20058;-60
2021/08/16 02:18:40;;;;;;;13.98;2.38;;;;;;;18.54;71.24;100982.06;5092584;28;20033;-61
2021/08/16 02:21:06;;;;;;;9.95;2.67;;;;;;;18.51;71.00;100991.00;5097563;28;20066;-61
2021/08/16 02:23:31;;;;;;;11.43;2.58;;;;;;;18.51;71.08;100991.00;5106903;28;20055;-61
2021/08/16 02:25:57;;;;;;;13.05;2.78;;;;;;;18.50;70.68;100989.25;5097597;28;20031;-61
2021/08/16 02:28:23;;;;;;;14.13;2.45;;;;;;;18.43;71.21;100995.69;5114433;28;20057;-61
2021/08/16 02:30:48;;;;;;;15.52;2.75;;;;;;;18.43;70.81;100990.38;5111467;28;20039;-61
2021/08/16 02:33:15;;;;;;;12.52;2.55;;;;;;;18.37;71.61;100993.22;5100516;28;20024;-61
2021/08/16 02:35:42;;;;;;;11.27;2.70;;;;;;;18.37;71.54;100988.78;5111648;28;20114;-61
2021/08/16 02:38:08;;;;;;;16.30;3.17;;;;;;;18.38;71.88;100990.53;5112786;28;20076;-61
2021/08/16 02:40:34;;;;;;;15.43;2.83;;;;;;;18.35;71.99;100995.06;5099923;28;20020;-61
2021/08/16 02:43:00;;;;;;;13.77;2.60;;;;;;;18.36;71.92;100989.72;5096319;28;20028;-61
2021/08/16 02:45:25;;;;;;;11.40;2.60;;;;;;;18.38;72.02;100987.00;5105969;28;20102;-61
2021/08/16 02:47:51;;;;;;;8.60;2.25;;;;;;;18.39;72.22;100986.06;5101817;28;20044;-61
2021/08/16 02:50:17;;;;;;;14.90;2.47;;;;;;;18.34;72.37;100985.38;5096537;28;20032;-60
2021/08/16 02:52:42;;;;;;;12.15;2.83;;;;;;;18.31;72.75;100981.84;5110191;28;20042;-62
2021/08/16 02:55:08;;;;;;;16.65;3.38;;;;;;;18.28;73.18;100979.31;5116969;28;20032;-61
2021/08/16 02:57:34;;;;;;;13.73;3.10;;;;;;;18.29;72.98;100974.84;5102035;28;20059;-62
2021/08/16 02:59:59;;;;;;;10.43;2.67;;;;;;;18.25;72.99;100976.75;5098557;28;20043;-62
2021/08/16 03:02:24;;;;;;;14.45;3.08;;;;;;;18.28;72.78;100976.66;5092569;28;20063;-61
2021/08/16 03:04:50;;;;;;;11.45;2.72;;;;;;;18.27;72.82;100979.34;5100257;28;20036;-61
2021/08/16 03:07:16;;;;;;;10.75;2.58;;;;;;;18.25;72.98;100976.75;5091344;28;20491;-62
2021/08/16 03:09:41;;;;;;;16.83;2.97;;;;;;;18.21;72.85;100976.91;5094835;28;20036;-61
2021/08/16 03:12:07;;;;;;;9.63;2.55;;;;;;;18.19;73.32;100968.97;5097656;28;20522;-60
2021/08/16 03:14:33;;;;;;;14.43;2.80;;;;;;;18.22;73.16;100962.66;5087262;28;20612;-62
2021/08/16 03:16:59;;;;;;;8.27;2.28;;;;;;;18.20;73.10;100961.84;5103076;28;20486;-62
2021/08/16 03:19:24;;;;;;;10.07;2.20;;;;;;;18.20;73.04;100956.53;5107342;28;20032;-60
2021/08/16 03:21:50;;;;;;;15.88;2.78;;;;;;;18.18;72.87;100961.03;5100843;28;20020;-61
2021/08/16 03:24:15;;;;;;;12.07;2.60;;;;;;;18.22;72.74;100960.91;5099339;28;20468;-61
2021/08/16 03:26:40;;;;;;;12.00;3.40;;;;;;;18.19;72.96;100960.97;5099820;28;20046;-61
2021/08/16 03:29:06;;;;;;;11.60;2.53;;;;;;;18.22;73.12;100957.34;5108210;28;20044;-60
2021/08/16 03:31:31;;;;;;;11.40;2.60;;;;;;;18.23;72.89;100956.44;5102862;28;20056;-61
2021/08/16 03:33:56;;;;;;;9.65;2.75;;;;;;;18.17;73.08;100956.66;5105033;28;20031;-61
2021/08/16 03:36:22;;;;;;;13.48;3.00;;;;;;;18.14;73.09;100960.25;5106284;28;20039;-61
2021/08/16 03:38:47;;;;;;;12.30;2.72;;;;;;;18.14;73.12;100959.38;5100704;28;20037;-60
2021/08/16 03:41:13;;;;;;;14.05;2.50;;;;;;;18.14;72.27;100948.75;5100830;28;20034;-61
2021/08/16 03:43:39;;;;;;;13.10;2.47;;;;;;;18.15;72.27;100956.69;5095925;28;20028;-62
2021/08/16 03:46:04;;;;;;;9.93;2.53;;;;;;;18.15;72.10;100953.13;5102224;28;20038;-61
2021/08/16 03:48:30;;;;;;;10.85;2.53;;;;;;;18.23;72.31;100945.81;5099251;28;20036;-60
2021/08/16 03:50:56;;;;;;;12.75;2.70;;;;;;;18.11;73.01;100947.94;5078212;28;20040;-61
2021/08/16 03:53:21;;;;;;;10.45;2.28;;;;;;;18.11;73.17;100950.59;5114986;28;20061;-60
2021/08/16 03:55:46;;;;;;;15.52;2.95;;;;;;;18.11;73.52;100945.28;5117972;28;20142;-61
2021/08/16 03:58:12;;;;;;;13.15;2.88;;;;;;;18.12;73.53;100946.13;5092007;28;20035;-61
2021/08/16 04:00:38;;;;;;;15.68;3.33;;;;;;;18.10;73.79;100948.84;5108693;28;20023;-60
2021/08/16 04:03:04;;;;;;;6.45;2.42;;;;;;;18.03;75.43;100949.94;5082785;28;20028;-60
2021/08/16 04:05:29;;;;;;;10.32;2.42;;;;;;;18.01;74.90;100953.56;5095320;28;20058;-60
2021/08/16 04:07:55;;;;;;;18.38;3.75;;;;;;;17.92;76.77;100955.59;5093289;28;20165;-63
2021/08/16 04:10:22;;;;;;;17.20;3.47;;;;;;;17.82;78.18;100950.56;5102043;28;20032;-65
2021/08/16 04:12:48;;;;;;;14.00;3.10;;;;;;;17.71;78.95;100945.56;5108496;28;20108;-63
2021/08/16 04:15:17;;;;;;;12.60;2.67;;;;;;;17.61;79.20;100944.97;5115355;28;20028;-61
2021/08/16 04:17:42;;;;;;;11.50;2.87;;;;;;;17.53;79.77;100950.50;5111697;28;20024;-61
2021/08/16 04:20:10;;;;;;;9.38;2.78;;;;;;;17.46;80.03;100950.72;5091857;28;20023;-60
2021/08/16 04:22:35;;;;;;;12.43;2.67;;;;;;;17.45;79.95;100962.28;5104807;28;20057;-60
2021/08/16 04:25:01;;;;;;;8.38;2.38;;;;;;;17.46;79.60;100961.34;5104906;28;20100;-60
2021/08/16 04:27:26;;;;;;;12.02;2.47;;;;;;;17.50;79.26;100963.91;5110488;28;20024;-61
2021/08/16 04:29:52;;;;;;;10.43;2.15;;;;;;;17.56;78.06;100954.88;5103273;28;20041;-60
2021/08/16 04:32:18;;;;;;;7.78;2.45;;;;;;;17.46;78.31;100953.38;5069551;28;20031;-60
2021/08/16 04:34:43;;;;;;;9.13;2.30;;;;;;;17.40;79.17;100957.09;5101997;28;20031;-60
2021/08/16 04:37:08;;;;;;;11.40;2.28;;;;;;;17.29;80.42;100962.69;5099866;28;20032;-61
2021/08/16 04:39:34;;;;;;;9.13;2.30;;;;;;;17.37;78.94;100964.25;5101308;28;20039;-62
2021/08/16 04:41:59;;;;;;;4.40;1.60;;;;;;;17.37;78.55;100962.47;5105060;28;20492;-60
2021/08/16 04:44:24;;;;;;;6.88;1.80;;;;;;;17.35;78.29;100964.31;5103911;28;20416;-61
2021/08/16 04:46:50;;;;;;;5.95;2.30;;;;;;;17.31;78.85;100965.31;5092227;28;20043;-61
2021/08/16 04:49:15;;;;;;;6.82;2.03;;;;;;;17.32;78.34;100969.72;5111263;28;20027;-61
2021/08/16 04:51:41;;;;;;;10.20;2.50;;;;;;;17.34;78.25;100973.19;5084469;28;20025;-61
2021/08/16 04:54:06;;;;;;;12.27;2.13;;;;;;;17.30;78.54;100974.22;5086152;28;20059;-61
2021/08/16 04:56:31;;;;;;;7.55;2.13;;;;;;;17.28;78.58;100976.91;5115699;28;20140;-60
2021/08/16 04:58:59;;;;;;;4.68;2.08;;;;;;;17.31;78.19;100987.41;5109391;28;20063;-61
2021/08/16 05:01:25;;;;;;;4.55;1.88;;;;;;;17.40;77.89;100991.63;5108009;28;20518;-61
2021/08/16 05:03:50;;;;;;;5.50;2.20;;;;;;;17.30;78.49;100976.88;5103611;28;20154;-60
2021/08/16 05:06:16;;;;;;;6.78;2.00;;;;;;;17.25;78.95;100981.41;5112476;28;20031;-61
2021/08/16 05:08:41;;;;;;;3.63;1.80;;;;;;;17.27;78.02;100982.25;5097846;28;20037;-60
2021/08/16 05:11:07;;;;;;;5.95;1.83;;;;;;;17.27;77.43;100977.78;5089099;28;20024;-60
2021/08/16 05:13:33;;;;;;;4.30;1.73;;;;;;;17.22;77.15;100976.19;5106205;28;20123;-61
2021/08/16 05:15:58;;;;;;;4.88;1.92;;;;;;;17.18;77.85;100983.34;5098804;28;20104;-61
2021/08/16 05:18:24;;;;;;;3.70;2.33;;;;;;;17.10;77.73;100969.41;5110710;28;20498;-61
2021/08/16 05:20:50;;;;;;;5.97;2.70;;;;;;;17.10;77.91;100983.56;5107193;28;20028;-60
2021/08/16 05:23:18;;;;;;;11.80;3.17;;;;;;;17.10;78.57;100982.69;5100221;28;20360;-60
2021/08/16 05:25:44;;;;;;;7.20;3.00;;;;;;;17.12;78.27;100989.69;5108092;28;20024;-60
2021/08/16 05:28:10;;;;;;;8.05;2.92;;;;;;;17.05;78.60;100993.44;5110476;28;20048;-61
2021/08/16 05:30:35;;;;;;;8.82;2.80;;;;;;;17.06;78.61;101004.94;5083572;28;20031;-60
2021/08/16 05:33:00;;;;;;;8.85;2.90;;;;;;;16.99;78.67;101000.69;5107285;28;20089;-60
2021/08/16 05:35:26;;;;;;;10.90;2.40;;;;;;;16.91;79.65;101007.06;5108680;28;20810;-63
2021/08/16 05:37:51;;;;;;;12.82;3.22;;;;;;;16.87;80.08;101000.09;5113058;28;20051;-62
2021/08/16 05:40:17;;;;;;;10.32;2.83;;;;;;;16.88;79.69;101011.56;5076845;28;20036;-61
2021/08/16 05:42:42;;;;;;;8.77;3.30;;;;;;;16.84;79.85;101001.94;5094985;28;20072;-61
2021/08/16 05:45:09;;;;;;;9.55;2.80;;;;;;;16.89;78.58;101005.38;5100565;28;20416;-60
2021/08/16 05:47:35;;;;;;;7.50;2.53;;;;;;;16.94;78.61;101011.44;5097947;28;20053;-60
2021/08/16 05:50:00;;;;;;;7.68;2.88;;;;;;;16.92;77.25;101006.16;5094903;28;20032;-61
2021/08/16 05:52:26;;;;;;;8.40;3.00;;;;;;;16.91;77.33;100998.22;5098812;28;20099;-60
2021/08/16 05:54:51;;;;;;;7.07;2.97;;;;;;;16.98;78.36;101001.63;5097734;28;20050;-61
2021/08/16 05:57:16;;;;;;;8.60;2.83;;;;;;;17.03;76.08;101003.25;5122782;28;20125;-61
2021/08/16 05:59:42;;;;;;;11.30;3.45;;;;;;;17.05;77.49;101011.13;5106322;28;20040;-60
2021/08/16 06:02:07;;;;;;;10.73;3.03;;;;;;;17.07;76.92;101012.88;5099626;28;20036;-60
2021/08/16 06:04:33;;;;;;;8.93;3.78;;;;;;;17.05;76.42;101024.41;5110058;28;20057;-58
2021/08/16 06:06:58;;;;;;;8.32;3.28;;;;;;;17.09;75.22;101034.06;5101493;28;20043;-60
2021/08/16 06:09:24;;;;;;;6.78;2.47;;;;;;;17.09;75.09;101026.97;5093882;28;20051;-59
2021/08/16 06:11:49;;;;;;;9.15;2.97;;;;;;;17.08;76.43;101032.31;5099365;28;20035;-60
2021/08/16 06:14:14;;;;;;;6.35;2.67;;;;;;;16.98;76.34;101034.34;5099112;28;20116;-60
2021/08/16 06:16:41;;;;;;;11.05;3.13;;;;;;;16.97;75.34;101037.88;5101109;28;20035;-61
2021/08/16 06:19:07;;;;;;;7.82;2.45;;;;;;;16.98;75.25;101042.28;5104905;28;20032;-61
2021/08/16 06:21:35;;;;;;;6.28;2.70;;;;;;;16.91;75.64;101044.22;5096762;28;20036;-64
2021/08/16 06:24:00;;;;;;;12.52;3.97;;;;;;;16.85;77.52;101048.81;5092729;28;20115;-63
2021/08/16 06:26:26;;;;;;;8.77;2.85;;;;;;;16.83;77.50;101043.53;5101970;28;20070;-62
2021/08/16 06:28:51;;;;;;;11.57;3.22;;;;;;;16.80;77.15;101053.31;5084633;28;20098;-61
2021/08/16 06:31:17;;;;;;;8.23;2.83;;;;;;;16.87;75.53;101054.97;5109163;28;20024;-60
2021/08/16 06:33:42;;;;;;;8.38;2.65;;;;;;;16.73;76.61;101053.47;5097996;28;20127;-60
2021/08/16 06:36:08;;;;;;;10.18;3.60;;;;;;;16.68;77.46;101067.75;5109619;28;20062;-60
2021/08/16 06:38:34;;;;;;;6.50;2.90;;;;;;;16.68;77.04;101062.44;5110869;28;20032;-61
2021/08/16 06:41:00;;;;;;;10.63;2.72;;;;;;;16.71;73.46;101063.25;5093804;28;20039;-60
2021/08/16 06:43:27;;;;;;;6.47;2.95;;;;;;;16.74;74.02;101078.22;5102298;28;20043;-59
2021/08/16 06:45:53;;;;;;;8.02;2.50;;;;;;;16.70;75.53;101079.22;5095784;28;20086;-60
2021/08/16 06:48:18;;;;;;;11.20;3.25;;;;;;;16.63;76.29;101090.88;5107818;28;20483;-61
2021/08/16 06:50:45;;;;;;;12.55;2.78;;;;;;;16.63;76.26;101080.25;5101987;28;20039;-60
2021/08/16 06:53:13;;;;;;;10.90;2.75;;;;;;;16.65;76.29;101081.94;5099137;28;20027;-60
2021/08/16 06:55:39;;;;;;;7.20;3.05;;;;;;;16.67;74.39;101090.78;5095076;28;20071;-61
2021/08/16 06:58:04;;;;;;;6.82;2.60;;;;;;;16.59;75.01;101102.47;5084340;28;20036;-60
2021/08/16 07:00:30;;;;;;;7.07;2.88;;;;;;;16.61;72.37;101104.16;5076968;28;20044;-60
2021/08/16 07:02:58;;;;;;;11.27;3.03;;;;;;;16.60;75.20;101105.09;5084905;28;20037;-61
2021/08/16 07:05:23;;;;;;;8.57;2.67;;;;;;;16.51;75.81;101098.19;5082080;28;20029;-61
2021/08/16 07:07:51;;;;;;;9.82;2.88;;;;;;;16.46;75.94;101093.88;5078582;28;20123;-60
2021/08/16 07:10:17;;;;;;;6.88;2.28;;;;;;;16.62;72.61;101097.97;5086709;28;20130;-60
2021/08/16 07:12:42;;;;;;;9.80;2.63;;;;;;;16.69;71.90;101104.88;5081825;28;20487;-60
2021/08/16 07:15:08;;;;;;;8.50;2.80;;;;;;;16.75;72.67;101107.38;5084663;28;20032;-60
2021/08/16 07:17:33;;;;;;;8.85;2.90;;;;;;;16.76;73.47;101101.16;5084989;28;20039;-59
2021/08/16 07:19:59;;;;;;;9.45;3.17;;;;;;;16.87;71.87;101113.34;5080210;28;20028;-59
2021/08/16 07:22:24;;;;;;;8.18;3.10;;;;;;;16.91;71.95;101113.22;5076167;28;20032;-60
2021/08/16 07:24:49;;;;;;;8.48;3.00;;;;;;;17.00;69.72;101111.28;5081388;28;20055;-60
2021/08/16 07:27:15;;;;;;;6.93;2.70;;;;;;;16.99;69.34;101112.16;5073780;28;20040;-60
2021/08/16 07:29:40;;;;;;;8.23;3.70;;;;;;;17.03;70.41;101112.09;5076484;28;20060;-61
2021/08/16 07:32:06;;;;;;;10.60;3.55;;;;;;;17.05;68.43;101117.31;5084742;28;20086;-60
2021/08/16 07:34:33;;;;;;;8.63;4.00;;;;;;;16.97;71.15;101106.91;5090371;28;20036;-60
2021/08/16 07:36:59;;;;;;;8.40;4.25;;;;;;;16.80;70.83;101120.53;5084032;28;20033;-60
2021/08/16 07:39:24;;;;;;;12.00;4.63;;;;;;;16.74;68.35;101128.63;5082572;28;20039;-59
2021/08/16 07:41:49;;;;;;;11.38;4.47;;;;;;;16.72;71.96;101135.75;5091437;28;20020;-61
2021/08/16 07:44:15;;;;;;;12.15;4.85;;;;;;;16.68;72.78;101134.09;5083720;28;20052;-60
2021/08/16 07:46:41;;;;;;;14.13;5.57;;;;;;;16.63;72.06;101133.31;5078510;28;21620;-60
2021/08/16 07:49:07;;;;;;;9.80;4.32;;;;;;;16.74;70.98;101140.13;5077080;28;20036;-60
2021/08/16 07:51:33;;;;;;;10.68;4.57;;;;;;;16.78;70.36;101138.25;5056821;28;20025;-61
2021/08/16 07:53:59;;;;;;;14.70;4.68;;;;;;;16.91;70.46;101146.88;5084232;28;20052;-60
2021/08/16 07:56:24;;;;;;;10.73;4.40;;;;;;;17.01;70.04;101151.03;5104321;28;20036;-59
2021/08/16 07:58:49;;;;;;;9.90;4.60;;;;;;;17.10;69.90;101148.16;5102855;28;20040;-61
2021/08/16 08:01:17;;;;;;;11.50;4.10;;;;;;;17.22;68.39;101143.47;5097214;28;20054;-60
2021/08/16 08:03:42;;;;;;;13.55;4.45;;;;;;;17.28;68.69;101156.63;5096073;28;20032;-60
2021/08/16 08:06:08;;;;;;;11.45;5.00;;;;;;;17.27;68.14;101161.03;5086586;28;20028;-59
2021/08/16 08:08:33;;;;;;;13.38;5.50;;;;;;;17.34;65.15;101164.44;5089044;28;20505;-60
2021/08/16 08:10:58;;;;;;;8.48;4.90;;;;;;;17.40;64.45;101158.97;5083327;28;20040;-60
2021/08/16 08:13:24;;;;;;;13.98;6.43;;;;;;;17.46;61.31;101163.25;5106130;28;20028;-60
2021/08/16 08:15:49;;;;;;;12.25;5.40;;;;;;;17.59;62.40;101163.81;5086450;28;20085;-60
2021/08/16 08:18:14;;;;;;;12.23;5.47;;;;;;;17.62;62.30;101169.06;5125356;28;20031;-60
2021/08/16 08:20:40;;;;;;;17.80;6.18;;;;;;;17.49;62.51;101176.47;5103304;28;20041;-60
2021/08/16 08:23:05;;;;;;;11.30;5.97;;;;;;;17.52;62.50;101173.69;5069046;28;20037;-61
2021/08/16 08:25:31;;;;;;;12.73;5.57;;;;;;;17.77;62.58;101175.72;5104324;28;20111;-60
2021/08/16 08:27:56;;;;;;;11.02;5.38;;;;;;;17.96;62.18;101169.06;5086333;28;20527;-61
2021/08/16 08:30:21;;;;;;;13.85;6.03;;;;;;;17.97;62.74;101185.88;5073849;28;20024;-60
2021/08/16 08:32:56;;;;;;;12.15;5.53;;;;;;;17.87;62.91;101201.22;5100287;28;20024;-60
2021/08/16 08:35:23;;;;;;;12.68;5.50;;;;;;;17.74;63.61;101187.31;5091392;28;20032;-60
2021/08/16 08:37:50;;;;;;;14.48;6.20;;;;;;;17.60;65.95;101185.03;5106430;28;20099;-61
2021/08/16 08:40:15;;;;;;;10.82;5.00;;;;;;;17.59;66.74;101201.00;5092364;28;20088;-62
2021/08/16 08:42:47;;;;;;;13.48;5.43;;;;;;;17.56;66.74;101198.41;5102494;28;20593;-61
2021/08/16 08:45:14;;;;;;;14.10;5.15;;;;;;;17.61;64.91;101194.72;5095074;28;20367;-61
2021/08/16 08:47:40;;;;;;;16.30;6.15;;;;;;;17.58;65.25;101200.16;5105009;28;20594;-59
2021/08/16 08:50:06;;;;;;;18.90;6.43;;;;;;;17.55;65.82;101192.25;5102631;28;20028;-62
2021/08/16 08:52:32;;;;;;;12.88;6.13;;;;;;;17.41;66.06;101205.88;5110903;28;22821;-61
2021/08/16 08:54:57;;;;;;;13.50;6.05;;;;;;;17.22;68.82;101215.16;5090598;28;20060;-60
2021/08/16 08:57:23;;;;;;;16.45;6.68;;;;;;;17.20;67.29;101215.22;5082392;28;20692;-60
2021/08/16 08:59:49;;;;;;;17.80;6.68;;;;;;;17.25;66.00;101220.41;5077610;28;20039;-60
2021/08/16 09:02:14;;;;;;;14.10;6.88;;;;;;;17.31;65.03;101222.91;5048888;28;20017;-61
2021/08/16 09:04:51;;;;;;;12.50;6.50;;;;;;;17.36;65.03;101212.22;5082130;28;20083;-60
2021/08/16 09:07:16;;;;;;;18.10;7.20;;;;;;;17.47;65.84;101226.97;5080513;28;20058;-60
2021/08/16 09:09:54;;;;;;;17.88;7.70;;;;;;;17.68;65.21;101220.25;5084027;28;20024;-61
2021/08/16 09:12:36;;;;;;;14.27;6.03;;;;;;;17.79;65.24;101221.75;5083720;28;20104;-60
2021/08/16 09:15:03;;;;;;;19.52;6.63;;;;;;;17.86;64.56;101221.59;5079127;28;20036;-61
2021/08/16 09:17:33;;;;;;;18.40;6.55;;;;;;;17.96;63.22;101224.91;5082672;28;20162;-62
2021/08/16 09:20:21;;;;;;;13.25;6.30;;;;;;;17.97;63.48;101242.56;5080469;28;20059;-62
2021/08/16 09:23:01;;;;;;;13.23;6.07;;;;;;;18.07;63.43;101233.47;5079776;28;20391;-61
2021/08/16 09:25:31;;;;;;;10.70;6.10;;;;;;;18.27;59.56;101250.66;5077756;28;20039;-61
2021/08/16 09:27:58;;;;;;;11.10;5.70;;;;;;;18.51;58.17;101242.00;5086289;28;20033;-61
2021/08/16 09:30:35;;;;;;;12.45;5.57;;;;;;;18.84;58.61;101249.06;5075720;28;20060;-61
2021/08/16 09:33:11;;;;;;;9.65;4.82;;;;;;;19.17;57.85;101243.63;5095412;28;20024;-60
2021/08/16 09:35:57;;;;;;;9.27;4.60;;;;;;;19.42;58.16;101243.75;5082077;28;20067;-62
2021/08/16 09:38:42;;;;;;;9.85;4.68;;;;;;;19.45;56.79;101246.28;5082033;28;20033;-60
2021/08/16 09:41:28;;;;;;;10.18;4.28;;;;;;;19.34;57.86;101252.00;5081118;28;20032;-61
2021/08/16 09:44:10;;;;;;;12.25;4.05;;;;;;;19.39;58.15;101252.69;5077088;28;20089;-62
2021/08/16 09:46:36;;;;;;;7.80;3.60;;;;;;;19.46;56.42;101256.91;5078800;28;20139;-60
2021/08/16 09:49:03;;;;;;;12.07;4.13;;;;;;;19.45;57.10;101252.53;5083766;28;20032;-61
2021/08/16 09:51:33;;;;;;;8.43;3.35;;;;;;;19.47;57.18;101269.34;5075186;28;20025;-62
2021/08/16 09:54:00;;;;;;;9.15;3.97;;;;;;;19.42;58.20;101251.75;5068830;28;20036;-61
2021/08/16 09:56:26;;;;;;;9.07;3.50;;;;;;;19.43;56.86;101270.34;5069464;28;20066;-61
2021/08/16 09:58:52;;;;;;;5.03;3.08;;;;;;;19.40;57.02;101270.44;5065835;28;20029;-61
2021/08/16 10:01:19;;;;;;;11.13;4.30;;;;;;;19.48;56.35;101263.06;5077545;28;20045;-61
2021/08/16 10:03:45;;;;;;;9.60;4.07;;;;;;;19.43;57.50;101274.78;5082765;28;20032;-61
2021/08/16 10:06:16;;;;;;;10.20;3.45;;;;;;;19.64;56.26;101273.22;5082049;28;20020;-61
2021/08/16 10:08:55;;;;;;;5.90;3.67;;;;;;;19.89;57.08;101277.81;5081420;28;20036;-62
2021/08/16 10:11:22;;;;;;;8.95;4.15;;;;;;;19.94;56.75;101292.69;5081772;28;20033;-61
2021/08/16 10:13:53;;;;;;;12.15;4.20;;;;;;;19.89;56.00;101289.34;5079554;28;20028;-60
2021/08/16 10:16:32;;;;;;;11.02;4.40;;;;;;;19.72;55.93;101291.66;5081478;28;20041;-61
2021/08/16 10:19:05;;;;;;;11.32;4.55;;;;;;;19.26;59.35;101291.31;5079011;28;20025;-60
2021/08/16 10:21:34;;;;;;;10.75;4.60;;;;;;;18.91;60.96;101309.22;5078456;28;21182;-61
2021/08/16 10:24:00;;;;;;;11.80;4.90;;;;;;;18.73;62.98;101307.03;5080834;28;20037;-61
2021/08/16 10:26:33;;;;;;;14.18;4.93;;;;;;;18.47;63.40;101328.16;5078409;28;20051;-60
2021/08/16 10:29:06;;;;;;;13.00;3.65;;;;;;;18.33;61.92;101335.59;5077592;28;20036;-62
2021/08/16 10:31:37;;;;;;;10.07;3.75;;;;;;;18.12;60.34;101339.69;5078951;28;20036;-61
2021/08/16 10:34:04;;;;;;;10.00;3.35;;;;;;;17.94;60.35;101346.34;5079731;28;20035;-63
2021/08/16 10:36:31;;;;;;;7.97;3.35;;;;;;;17.92;60.64;101358.81;5082652;28;20495;-62
2021/08/16 10:39:01;;;;;;;9.90;3.67;;;;;;;17.73;62.83;101350.34;5077984;28;20036;-61
2021/08/16 10:41:31;;;;;;;9.52;3.28;;;;;;;17.59;64.37;101353.31;5061976;28;20032;-61
2021/08/16 10:43:57;;;;;;;12.15;3.80;;;;;;;17.40;66.68;101344.03;5079572;28;20029;-63
2021/08/16 10:46:24;;;;;;;8.07;3.67;;;;;;;17.40;64.06;101350.22;5080282;28;20131;-61
2021/08/16 10:49:05;;;;;;;10.75;4.10;;;;;;;17.21;65.08;101348.88;5078623;28;20032;-61
2021/08/16 10:51:45;;;;;;;8.73;3.90;;;;;;;17.10;66.12;101349.09;5080345;28;20086;-60
2021/08/16 10:54:24;;;;;;;8.50;3.85;;;;;;;17.12;67.17;101347.25;5078472;28;20039;-62
2021/08/16 10:56:51;;;;;;;16.42;4.20;;;;;;;17.15;66.81;101342.78;5079333;28;20049;-61
2021/08/16 10:59:19;;;;;;;9.60;3.90;;;;;;;17.16;67.51;101351.59;5075619;28;20400;-61
2021/08/16 11:01:46;;;;;;;12.80;3.50;;;;;;;17.18;64.87;101347.13;5079242;28;20028;-62
2021/08/16 11:04:15;;;;;;;9.27;3.80;;;;;;;17.30;65.24;101348.66;5079116;28;20028;-61
2021/08/16 11:06:55;;;;;;;7.68;3.40;;;;;;;17.43;64.17;101351.91;5068680;28;20213;-61
2021/08/16 11:09:25;;;;;;;12.98;4.25;;;;;;;17.49;64.59;101357.13;5081528;28;20063;-61
2021/08/16 11:12:02;;;;;;;18.80;3.95;;;;;;;17.50;62.18;101353.53;5081137;28;20029;-60
2021/08/16 11:14:28;;;;;;;15.15;2.85;;;;;;;17.53;61.92;101357.00;5081520;28;20035;-62
2021/08/16 11:16:54;;;;;;;11.02;3.40;;;;;;;17.62;60.71;101363.03;5066822;28;21446;-61